createdAt,value
2018-07-17T00:01:19.339Z,5.77
2018-07-17T00:03:46.872Z,4.23
2018-07-17T00:06:14.220Z,5.33
2018-07-17T00:08:41.592Z,3.90
2018-07-17T00:11:09.409Z,3.80
2018-07-17T00:13:36.771Z,4.27
2018-07-17T00:16:04.388Z,8.33
2018-07-17T00:18:31.851Z,8.83
2018-07-17T00:20:59.193Z,7.80
2018-07-17T00:23:26.536Z,10.60
2018-07-17T00:25:53.886Z,9.17
2018-07-17T00:28:21.235Z,8.23
2018-07-17T00:30:48.580Z,5.90
2018-07-17T00:33:15.918Z,6.90
2018-07-17T00:35:43.258Z,9.40
2018-07-17T00:38:10.616Z,10.60
2018-07-17T00:40:37.963Z,12.03
2018-07-17T00:43:06.598Z,12.13
2018-07-17T00:45:33.927Z,12.67
2018-07-17T00:48:01.283Z,11.93
2018-07-17T00:50:28.631Z,13.03
2018-07-17T00:52:56.024Z,11.30
2018-07-17T00:55:23.382Z,13.37
2018-07-17T00:57:50.883Z,10.63
2018-07-17T01:00:18.172Z,13.43
2018-07-17T01:02:51.137Z,10.87
2018-07-17T01:05:24.282Z,11.03
2018-07-17T01:07:57.517Z,10.70
2018-07-17T01:10:30.674Z,13.00
2018-07-17T01:12:57.550Z,13.67
2018-07-17T01:15:31.980Z,12.80
2018-07-17T01:17:59.349Z,10.70
2018-07-17T01:20:26.784Z,10.47
2018-07-17T01:22:54.171Z,12.30
2018-07-17T01:25:21.516Z,11.50
2018-07-17T01:27:48.854Z,12.60
2018-07-17T01:30:16.200Z,11.93
2018-07-17T01:32:43.568Z,11.50
2018-07-17T01:35:10.927Z,11.93
2018-07-17T01:37:38.311Z,12.20
2018-07-17T01:40:05.704Z,11.77
2018-07-17T01:42:33.031Z,11.93
2018-07-17T01:45:00.400Z,11.10
2018-07-17T01:47:27.734Z,10.87
2018-07-17T01:49:55.091Z,9.87
2018-07-17T01:52:22.484Z,9.77
2018-07-17T01:54:49.854Z,10.10
2018-07-17T01:57:17.227Z,10.20
2018-07-17T01:59:44.569Z,9.27
2018-07-17T02:02:11.917Z,8.77
2018-07-17T02:04:39.287Z,8.37
2018-07-17T02:07:06.891Z,9.03
2018-07-17T02:09:34.237Z,9.20
2018-07-17T02:12:01.612Z,8.50
2018-07-17T02:14:28.982Z,7.30
2018-07-17T02:16:56.343Z,7.93
2018-07-17T02:19:23.720Z,6.43
2018-07-17T02:21:51.063Z,5.80
2018-07-17T02:24:18.399Z,6.53
2018-07-17T02:26:45.722Z,6.03
2018-07-17T02:29:13.071Z,5.37
2018-07-17T02:31:40.441Z,6.57
2018-07-17T02:34:07.776Z,4.77
2018-07-17T02:36:35.299Z,5.03
2018-07-17T02:39:02.753Z,6.57
2018-07-17T02:41:30.092Z,4.30
2018-07-17T02:43:57.414Z,4.07
2018-07-17T02:46:24.821Z,4.43
2018-07-17T02:48:52.163Z,6.33
2018-07-17T02:51:19.504Z,5.43
2018-07-17T02:53:46.847Z,3.73
2018-07-17T02:56:14.190Z,5.10
2018-07-17T02:58:41.555Z,3.33
2018-07-17T03:01:08.903Z,3.57
2018-07-17T03:03:36.256Z,4.20
2018-07-17T03:06:03.616Z,5.37
2018-07-17T03:08:30.960Z,3.43
2018-07-17T03:10:58.291Z,4.43
2018-07-17T03:13:25.625Z,4.10
2018-07-17T03:15:53.007Z,4.53
2018-07-17T03:18:20.356Z,3.10
2018-07-17T03:20:47.691Z,4.50
2018-07-17T03:23:15.374Z,5.50
2018-07-17T03:25:42.711Z,3.47
2018-07-17T03:28:10.043Z,3.70
2018-07-17T03:30:37.460Z,3.43
2018-07-17T03:33:04.807Z,4.00
2018-07-17T03:35:32.176Z,3.93
2018-07-17T03:37:59.544Z,3.53
2018-07-17T03:40:26.880Z,5.50
2018-07-17T03:42:54.231Z,4.13
2018-07-17T03:45:21.569Z,4.63
2018-07-17T03:47:48.968Z,4.53
2018-07-17T03:50:16.304Z,5.17
2018-07-17T03:52:43.659Z,4.97
2018-07-17T03:55:10.998Z,6.27
2018-07-17T03:57:38.351Z,6.00
2018-07-17T04:00:06.039Z,6.20
2018-07-17T04:02:33.419Z,6.77
2018-07-17T04:05:00.832Z,9.23
2018-07-17T04:07:28.171Z,7.63
2018-07-17T04:09:55.553Z,7.43
2018-07-17T04:12:22.903Z,5.53
2018-07-17T04:14:50.255Z,5.10
2018-07-17T04:17:17.622Z,4.83
2018-07-17T04:19:44.968Z,8.57
2018-07-17T04:22:12.315Z,10.07
2018-07-17T04:24:39.655Z,4.17
2018-07-17T04:27:07.011Z,4.03
2018-07-17T04:29:34.375Z,6.63
2018-07-17T04:32:01.720Z,4.60
2018-07-17T04:34:29.093Z,6.27
2018-07-17T04:36:56.460Z,5.33
2018-07-17T04:39:23.816Z,3.90
2018-07-17T04:41:51.182Z,7.63
2018-07-17T04:44:18.561Z,4.43
2018-07-17T04:46:45.897Z,3.93
2018-07-17T04:49:13.256Z,5.37
2018-07-17T04:51:40.642Z,4.43
2018-07-17T04:54:08.021Z,5.70
2018-07-17T04:56:35.454Z,4.70
2018-07-17T04:59:02.788Z,7.60
2018-07-17T05:01:30.138Z,5.33
2018-07-17T05:03:57.506Z,4.43
2018-07-17T05:06:25.012Z,6.57
2018-07-17T05:08:52.415Z,7.97
2018-07-17T05:11:19.854Z,4.93
2018-07-17T05:13:47.212Z,8.50
2018-07-17T05:16:14.614Z,10.57
2018-07-17T05:18:41.936Z,9.73
2018-07-17T05:21:09.287Z,8.77
2018-07-17T05:23:36.665Z,10.50
2018-07-17T05:26:04.292Z,9.60
2018-07-17T05:28:31.631Z,10.27
2018-07-17T05:30:59.037Z,10.97
2018-07-17T05:33:26.379Z,9.77
2018-07-17T05:35:54.286Z,13.23
2018-07-17T05:38:21.695Z,12.00
2018-07-17T05:40:49.048Z,11.77
2018-07-17T05:43:16.406Z,14.83
2018-07-17T05:45:43.727Z,13.07
2018-07-17T05:48:11.180Z,15.67
2018-07-17T05:50:38.525Z,15.33
2018-07-17T05:53:05.903Z,15.97
2018-07-17T05:55:33.247Z,17.37
2018-07-17T05:58:00.615Z,16.53
2018-07-17T06:00:27.978Z,16.17
2018-07-17T06:02:55.310Z,16.07
2018-07-17T06:05:22.692Z,14.23
2018-07-17T06:07:50.020Z,16.97
2018-07-17T06:10:17.407Z,15.20
2018-07-17T06:12:44.741Z,10.10
2018-07-17T06:15:12.132Z,16.67
2018-07-17T06:17:39.483Z,12.73
2018-07-17T06:20:06.854Z,9.33
2018-07-17T06:22:34.335Z,13.73
2018-07-17T06:25:01.823Z,15.00
2018-07-17T06:27:29.052Z,13.13
2018-07-17T06:29:56.445Z,11.63
2018-07-17T06:32:23.817Z,10.47
2018-07-17T06:34:51.211Z,13.50
2018-07-17T06:37:18.551Z,12.13
2018-07-17T06:39:45.948Z,12.53
2018-07-17T06:42:13.327Z,9.83
2018-07-17T06:44:40.721Z,11.53
2018-07-17T06:47:08.052Z,7.20
2018-07-17T06:49:35.444Z,10.07
2018-07-17T06:52:02.777Z,7.07
2018-07-17T06:54:30.134Z,7.20
2018-07-17T06:56:57.475Z,7.40
2018-07-17T06:59:24.871Z,8.57
2018-07-17T07:01:52.227Z,8.30
2018-07-17T07:04:19.547Z,6.97
2018-07-17T07:06:46.906Z,6.20
2018-07-17T07:09:14.240Z,6.23
2018-07-17T07:11:41.589Z,7.43
2018-07-17T07:14:08.948Z,7.17
2018-07-17T07:16:36.321Z,8.03
2018-07-17T07:19:03.677Z,10.17
2018-07-17T07:21:31.060Z,9.37
2018-07-17T07:23:58.427Z,6.03
2018-07-17T07:26:25.788Z,8.73
2018-07-17T07:28:53.145Z,9.43
2018-07-17T07:31:20.511Z,6.87
2018-07-17T07:33:47.863Z,6.93
2018-07-17T07:36:15.254Z,7.43
2018-07-17T07:38:42.603Z,7.13
2018-07-17T07:41:09.982Z,6.47
2018-07-17T07:43:37.358Z,5.77
2018-07-17T07:46:05.111Z,7.87
2018-07-17T07:48:32.494Z,7.43
2018-07-17T07:50:59.836Z,6.97
2018-07-17T07:53:27.190Z,5.90
2018-07-17T07:55:54.518Z,5.27
2018-07-17T07:58:21.875Z,7.33
2018-07-17T08:00:49.228Z,5.20
2018-07-17T08:03:16.584Z,6.43
2018-07-17T08:05:43.973Z,5.40
2018-07-17T08:08:11.318Z,10.10
2018-07-17T08:10:38.735Z,6.30
2018-07-17T08:13:06.061Z,4.33
2018-07-17T08:15:33.412Z,6.10
2018-07-17T08:18:00.759Z,8.33
2018-07-17T08:20:28.153Z,4.10
2018-07-17T08:22:55.526Z,7.53
2018-07-17T08:25:22.880Z,6.27
2018-07-17T08:27:50.235Z,6.53
2018-07-17T08:30:17.625Z,4.97
2018-07-17T08:32:44.992Z,4.10
2018-07-17T08:35:12.354Z,6.77
2018-07-17T08:37:39.759Z,8.47
2018-07-17T08:40:07.189Z,7.30
2018-07-17T08:42:34.579Z,6.40
2018-07-17T08:45:01.982Z,3.67
2018-07-17T08:47:29.352Z,5.57
2018-07-17T08:49:56.694Z,7.80
2018-07-17T08:52:24.052Z,5.43
2018-07-17T08:54:51.412Z,4.83
2018-07-17T08:57:18.755Z,6.97
2018-07-17T08:59:46.120Z,5.77
2018-07-17T09:02:13.498Z,4.73
2018-07-17T09:04:40.883Z,4.20
2018-07-17T09:07:08.241Z,5.53
2018-07-17T09:09:35.618Z,8.10
2018-07-17T09:12:02.990Z,5.87
2018-07-17T09:14:30.344Z,5.37
2018-07-17T09:16:57.727Z,5.90
2018-07-17T09:19:25.091Z,4.17
2018-07-17T09:21:52.484Z,7.10
2018-07-17T09:24:19.847Z,5.30
2018-07-17T09:26:47.231Z,5.93
2018-07-17T09:29:14.579Z,15.17
2018-07-17T09:31:41.952Z,6.57
2018-07-17T09:34:09.339Z,5.80
2018-07-17T09:36:36.690Z,9.07
2018-07-17T09:39:06.080Z,5.03
2018-07-17T09:41:33.657Z,7.03
2018-07-17T09:44:01.020Z,7.87
2018-07-17T09:46:28.394Z,3.97
2018-07-17T09:48:55.723Z,3.43
2018-07-17T09:51:23.084Z,7.57
2018-07-17T09:53:50.455Z,3.93
2018-07-17T09:56:17.881Z,6.30
2018-07-17T09:58:45.216Z,6.20
2018-07-17T10:01:18.352Z,5.07
2018-07-17T10:03:45.720Z,9.37
2018-07-17T10:06:13.078Z,6.30
2018-07-17T10:08:40.452Z,6.67
2018-07-17T10:11:07.824Z,9.23
2018-07-17T10:13:35.219Z,8.90
2018-07-17T10:16:02.575Z,8.53
2018-07-17T10:18:29.913Z,7.17
2018-07-17T10:20:57.290Z,7.07
2018-07-17T10:23:24.667Z,7.60
2018-07-17T10:25:52.032Z,9.77
2018-07-17T10:28:19.410Z,13.00
2018-07-17T10:30:46.792Z,9.40
2018-07-17T10:33:14.150Z,6.67
2018-07-17T10:35:41.581Z,7.13
2018-07-17T10:38:08.960Z,7.33
2018-07-17T10:40:36.355Z,6.23
2018-07-17T10:43:03.746Z,8.30
2018-07-17T10:45:31.104Z,4.97
2018-07-17T10:47:58.480Z,4.03
2018-07-17T10:50:25.831Z,8.83
2018-07-17T10:52:53.219Z,7.20
2018-07-17T10:55:20.575Z,6.43
2018-07-17T10:57:47.935Z,8.33
2018-07-17T11:00:15.297Z,7.33
2018-07-17T11:02:42.664Z,5.07
2018-07-17T11:05:10.010Z,6.07
2018-07-17T11:07:37.399Z,5.53
2018-07-17T11:10:04.783Z,6.23
2018-07-17T11:12:32.138Z,8.43
2018-07-17T11:14:59.535Z,8.70
2018-07-17T11:17:26.888Z,7.33
2018-07-17T11:19:54.363Z,8.70
2018-07-17T11:22:21.747Z,9.53
2018-07-17T11:24:49.140Z,6.57
2018-07-17T11:27:16.491Z,9.53
2018-07-17T11:29:44.024Z,7.53
2018-07-17T11:32:11.564Z,5.07
2018-07-17T11:34:38.918Z,5.73
2018-07-17T11:37:06.331Z,3.70
2018-07-17T11:39:33.643Z,6.93
2018-07-17T11:42:01.010Z,5.73
2018-07-17T11:44:28.423Z,5.40
2018-07-17T11:46:55.776Z,5.23
2018-07-17T11:49:23.131Z,6.83
2018-07-17T11:51:50.507Z,5.40
2018-07-17T11:54:17.892Z,5.43
2018-07-17T11:56:45.250Z,8.37
2018-07-17T11:59:12.648Z,7.17
2018-07-17T12:01:40.099Z,7.97
2018-07-17T12:04:07.464Z,4.93
2018-07-17T12:06:34.820Z,6.10
2018-07-17T12:09:02.447Z,3.57
2018-07-17T12:11:29.791Z,4.00
2018-07-17T12:13:57.178Z,4.93
2018-07-17T12:16:24.516Z,3.83
2018-07-17T12:18:51.873Z,4.67
2018-07-17T12:21:19.293Z,7.23
2018-07-17T12:23:46.652Z,7.90
2018-07-17T12:26:14.004Z,4.90
2018-07-17T12:28:41.360Z,5.43
2018-07-17T12:31:08.695Z,4.70
2018-07-17T12:33:36.068Z,4.93
2018-07-17T12:36:03.423Z,5.33
2018-07-17T12:38:30.804Z,3.97
2018-07-17T12:40:58.176Z,5.93
2018-07-17T12:43:25.560Z,5.20
2018-07-17T12:45:52.923Z,3.30
2018-07-17T12:48:20.290Z,3.43
2018-07-17T12:50:47.650Z,4.93
2018-07-17T12:53:15.040Z,2.13
2018-07-17T12:55:42.529Z,5.93
2018-07-17T12:58:09.867Z,3.30
2018-07-17T13:00:37.452Z,2.87
2018-07-17T13:03:05.123Z,6.40
2018-07-17T13:05:32.564Z,5.07
2018-07-17T13:07:59.979Z,4.43
2018-07-17T13:10:27.401Z,5.40
2018-07-17T13:12:54.751Z,7.33
2018-07-17T13:15:22.110Z,5.43
2018-07-17T13:17:49.500Z,7.13
2018-07-17T13:20:20.459Z,5.70
2018-07-17T13:22:47.842Z,5.03
2018-07-17T13:25:15.203Z,4.97
2018-07-17T13:27:42.650Z,6.20
2018-07-17T13:30:10.015Z,4.07
2018-07-17T13:32:37.390Z,3.87
2018-07-17T13:35:04.734Z,5.13
2018-07-17T13:37:32.148Z,5.00
2018-07-17T13:39:59.519Z,4.73
2018-07-17T13:42:26.944Z,5.27
2018-07-17T13:44:54.426Z,4.93
2018-07-17T13:47:21.702Z,3.50
2018-07-17T13:49:49.057Z,8.43
2018-07-17T13:52:16.413Z,6.70
2018-07-17T13:54:43.799Z,2.20
2018-07-17T13:57:11.217Z,3.73
2018-07-17T13:59:38.608Z,5.50
2018-07-17T14:02:06.103Z,3.00
2018-07-17T14:04:33.453Z,3.23
2018-07-17T14:07:00.951Z,2.60
2018-07-17T14:09:28.237Z,2.63
2018-07-17T14:11:55.579Z,5.90
2018-07-17T14:14:22.984Z,5.87
2018-07-17T14:16:50.560Z,4.70
2018-07-17T14:19:17.964Z,2.90
2018-07-17T14:21:45.327Z,3.17
2018-07-17T14:24:12.713Z,4.63
2018-07-17T14:26:40.076Z,5.30
2018-07-17T14:29:07.431Z,4.03
2018-07-17T14:31:34.806Z,4.20
2018-07-17T14:34:02.203Z,6.20
2018-07-17T14:36:29.575Z,3.20
2018-07-17T14:38:57.023Z,3.87
2018-07-17T14:41:24.422Z,6.23
2018-07-17T14:43:51.798Z,6.23
2018-07-17T14:46:20.072Z,5.67
2018-07-17T14:48:47.431Z,6.43
2018-07-17T14:51:14.792Z,3.97
2018-07-17T14:53:42.150Z,6.00
2018-07-17T14:56:09.539Z,3.93
2018-07-17T14:58:36.892Z,4.27
2018-07-17T15:01:04.883Z,4.57
2018-07-17T15:03:32.552Z,5.87
2018-07-17T15:05:59.911Z,4.70
2018-07-17T15:08:27.272Z,6.53
2018-07-17T15:10:54.647Z,5.67
2018-07-17T15:13:22.013Z,4.23
2018-07-17T15:15:49.464Z,3.43
2018-07-17T15:18:16.784Z,5.67
2018-07-17T15:20:44.140Z,5.30
2018-07-17T15:23:11.524Z,5.27
2018-07-17T15:25:38.907Z,4.50
2018-07-17T15:28:06.418Z,6.97
2018-07-17T15:30:33.792Z,6.03
2018-07-17T15:33:01.171Z,4.77
2018-07-17T15:35:28.528Z,4.50
2018-07-17T15:37:55.902Z,5.27
2018-07-17T15:40:23.525Z,6.87
2018-07-17T15:42:50.926Z,6.87
2018-07-17T15:45:18.709Z,4.70
2018-07-17T15:47:46.023Z,7.03
2018-07-17T15:50:14.636Z,4.77
2018-07-17T15:52:42.020Z,4.07
2018-07-17T15:55:09.449Z,4.63
2018-07-17T15:57:36.851Z,7.47
2018-07-17T16:00:04.533Z,4.17
2018-07-17T16:02:31.887Z,4.37
2018-07-17T16:04:59.260Z,5.70
2018-07-17T16:07:26.616Z,3.57
2018-07-17T16:09:54.182Z,4.53
2018-07-17T16:12:21.524Z,5.00
2018-07-17T16:14:49.757Z,3.73
2018-07-17T16:17:17.200Z,4.17
2018-07-17T16:19:44.558Z,3.83
2018-07-17T16:22:11.936Z,4.80
2018-07-17T16:24:39.331Z,3.80
2018-07-17T16:27:07.451Z,9.33
2018-07-17T16:29:34.900Z,4.37
2018-07-17T16:32:02.500Z,7.77
2018-07-17T16:34:29.868Z,4.53
2018-07-17T16:36:57.283Z,6.33
2018-07-17T16:39:24.655Z,7.10
2018-07-17T16:41:52.228Z,4.83
2018-07-17T16:44:19.766Z,3.90
2018-07-17T16:46:47.164Z,4.07
2018-07-17T16:49:14.649Z,5.10
2018-07-17T16:51:42.493Z,3.87
2018-07-17T16:54:09.871Z,3.40
2018-07-17T16:56:37.225Z,2.87
2018-07-17T16:59:04.588Z,4.60
2018-07-17T17:01:31.970Z,3.87
2018-07-17T17:03:59.352Z,6.10
2018-07-17T17:06:26.694Z,5.63
2018-07-17T17:08:54.068Z,4.43
2018-07-17T17:11:21.426Z,5.07
2018-07-17T17:13:48.798Z,6.33
2018-07-17T17:16:16.231Z,3.70
2018-07-17T17:18:43.575Z,4.53
2018-07-17T17:21:10.938Z,5.50
2018-07-17T17:23:38.279Z,4.23
2018-07-17T17:26:06.304Z,2.77
2018-07-17T17:28:33.675Z,4.43
2018-07-17T17:31:01.047Z,4.43
2018-07-17T17:33:28.415Z,7.60
2018-07-17T17:35:55.788Z,5.70
2018-07-17T17:38:23.179Z,3.10
2018-07-17T17:40:50.583Z,7.43
2018-07-17T17:43:17.950Z,4.77
2018-07-17T17:45:45.288Z,5.73
2018-07-17T17:48:12.666Z,5.90
2018-07-17T17:50:40.076Z,4.43
2018-07-17T17:53:07.427Z,4.13
2018-07-17T17:55:34.820Z,3.67
2018-07-17T17:58:02.168Z,2.87
2018-07-17T18:00:29.538Z,4.33
2018-07-17T18:02:56.882Z,4.60
2018-07-17T18:05:24.252Z,6.00
2018-07-17T18:07:51.731Z,3.37
2018-07-17T18:10:19.105Z,3.80
2018-07-17T18:12:46.494Z,5.30
2018-07-17T18:15:13.884Z,4.33
2018-07-17T18:17:41.316Z,6.50
2018-07-17T18:20:08.656Z,5.13
2018-07-17T18:22:36.027Z,5.00
2018-07-17T18:25:03.507Z,5.73
2018-07-17T18:27:30.871Z,4.20
2018-07-17T18:29:58.227Z,4.63
2018-07-17T18:32:25.588Z,5.83
2018-07-17T18:34:53.208Z,2.73
2018-07-17T18:37:20.561Z,7.73
2018-07-17T18:39:47.911Z,4.10
2018-07-17T18:42:15.402Z,4.23
2018-07-17T18:44:42.686Z,3.33
2018-07-17T18:47:10.147Z,6.17
2018-07-17T18:49:37.547Z,5.27
2018-07-17T18:52:04.993Z,4.27
2018-07-17T18:54:32.343Z,7.33
2018-07-17T18:56:59.679Z,5.27
2018-07-17T18:59:27.029Z,5.00
2018-07-17T19:01:54.403Z,6.97
2018-07-17T19:04:21.765Z,3.77
2018-07-17T19:06:49.102Z,2.43
2018-07-17T19:09:16.489Z,5.10
2018-07-17T19:11:43.848Z,4.50
2018-07-17T19:14:11.266Z,3.83
2018-07-17T19:16:38.624Z,5.33
2018-07-17T19:19:06.256Z,5.87
2018-07-17T19:21:33.675Z,3.77
2018-07-17T19:24:01.072Z,4.07
2018-07-17T19:26:28.439Z,4.53
2018-07-17T19:28:55.854Z,2.57
2018-07-17T19:31:23.195Z,7.43
2018-07-17T19:33:50.563Z,7.43
2018-07-17T19:36:18.026Z,3.90
2018-07-17T19:38:45.403Z,8.70
2018-07-17T19:41:12.771Z,4.00
2018-07-17T19:43:40.128Z,4.57
2018-07-17T19:46:07.485Z,5.97
2018-07-17T19:48:34.862Z,4.53
2018-07-17T19:51:02.207Z,6.70
2018-07-17T19:53:29.580Z,5.87
2018-07-17T19:55:56.970Z,4.53
2018-07-17T19:58:24.291Z,6.20
2018-07-17T20:00:51.661Z,4.50
2018-07-17T20:03:19.015Z,4.37
2018-07-17T20:05:46.383Z,6.40
2018-07-17T20:08:13.825Z,5.73
2018-07-17T20:10:41.209Z,4.40
2018-07-17T20:13:08.557Z,6.10
2018-07-17T20:15:35.980Z,4.07
2018-07-17T20:18:03.388Z,7.40
2018-07-17T20:20:30.963Z,4.93
2018-07-17T20:22:58.382Z,5.27
2018-07-17T20:25:25.744Z,4.50
2018-07-17T20:27:53.098Z,4.30
2018-07-17T20:30:20.470Z,4.57
2018-07-17T20:32:47.827Z,6.70
2018-07-17T20:35:15.199Z,5.20
2018-07-17T20:37:42.579Z,7.90
2018-07-17T20:40:09.927Z,4.97
2018-07-17T20:42:37.349Z,2.63
2018-07-17T20:45:04.742Z,3.90
2018-07-17T20:47:32.075Z,5.73
2018-07-17T20:49:59.890Z,6.07
2018-07-17T20:52:27.324Z,5.87
2018-07-17T20:54:54.876Z,4.13
2018-07-17T20:57:22.236Z,2.87
2018-07-17T20:59:49.783Z,4.43
2018-07-17T21:02:17.164Z,3.17
2018-07-17T21:04:44.504Z,5.67
2018-07-17T21:07:11.865Z,4.13
2018-07-17T21:09:39.232Z,3.90
2018-07-17T21:12:06.592Z,8.97
2018-07-17T21:14:33.951Z,4.83
2018-07-17T21:17:01.315Z,2.83
2018-07-17T21:19:28.659Z,5.00
2018-07-17T21:21:56.001Z,6.23
2018-07-17T21:24:23.354Z,7.93
2018-07-17T21:26:50.806Z,4.37
2018-07-17T21:29:18.196Z,6.03
2018-07-17T21:31:45.594Z,3.93
2018-07-17T21:34:12.962Z,2.47
2018-07-17T21:36:40.375Z,3.93
2018-07-17T21:39:08.466Z,7.33
2018-07-17T21:41:35.864Z,3.63
2018-07-17T21:44:03.207Z,4.97
2018-07-17T21:46:30.666Z,5.30
2018-07-17T21:48:58.036Z,7.97
2018-07-17T21:51:25.405Z,6.40
2018-07-17T21:53:52.762Z,6.33
2018-07-17T21:56:20.191Z,6.97
2018-07-17T21:58:47.824Z,10.43
2018-07-17T22:01:15.576Z,7.33
2018-07-17T22:03:42.947Z,5.87
2018-07-17T22:06:10.424Z,6.37
2018-07-17T22:08:37.810Z,8.27
2018-07-17T22:11:05.196Z,5.87
2018-07-17T22:13:32.532Z,5.57
2018-07-17T22:15:59.880Z,5.30
2018-07-17T22:18:27.267Z,8.87
2018-07-17T22:20:54.615Z,4.07
2018-07-17T22:23:21.972Z,7.00
2018-07-17T22:25:49.320Z,5.23
2018-07-17T22:28:16.679Z,7.60
2018-07-17T22:30:44.032Z,7.43
2018-07-17T22:33:11.406Z,6.27
2018-07-17T22:35:38.847Z,3.50
2018-07-17T22:38:06.202Z,5.40
2018-07-17T22:40:33.565Z,4.67
2018-07-17T22:43:00.920Z,5.30
2018-07-17T22:45:28.255Z,4.73
2018-07-17T22:47:55.623Z,4.07
2018-07-17T22:50:23.097Z,5.13
2018-07-17T22:52:50.448Z,2.57
2018-07-17T22:55:17.804Z,5.50
2018-07-17T22:57:45.170Z,3.63
2018-07-17T23:00:12.539Z,6.63
2018-07-17T23:02:39.892Z,4.30
2018-07-17T23:05:07.256Z,6.10
2018-07-17T23:07:34.629Z,5.73
2018-07-17T23:10:01.991Z,4.73
2018-07-17T23:12:29.332Z,4.23
2018-07-17T23:14:56.689Z,3.07
2018-07-17T23:17:24.056Z,3.87
2018-07-17T23:19:51.416Z,5.03
2018-07-17T23:22:26.717Z,4.47
2018-07-17T23:24:54.076Z,6.50
2018-07-17T23:27:21.411Z,4.00
2018-07-17T23:29:48.771Z,5.53
2018-07-17T23:32:16.103Z,4.63
2018-07-17T23:34:43.443Z,4.33
2018-07-17T23:37:10.796Z,3.23
2018-07-17T23:39:38.144Z,4.07
2018-07-17T23:42:05.503Z,2.87
2018-07-17T23:44:32.887Z,4.17
2018-07-17T23:47:00.244Z,4.33
2018-07-17T23:49:33.232Z,6.37
2018-07-17T23:52:00.587Z,5.90
2018-07-17T23:54:27.973Z,3.60
2018-07-17T23:56:55.332Z,6.33
2018-07-17T23:59:22.681Z,4.53
